createdAt,value
2023-03-07T00:00:00.889Z,8.00
2023-03-07T00:02:27.995Z,8.00
2023-03-07T00:04:55.708Z,8.00
2023-03-07T00:07:22.667Z,8.00
2023-03-07T00:09:49.589Z,8.00
2023-03-07T00:12:16.653Z,8.00
2023-03-07T00:14:43.561Z,8.00
2023-03-07T00:17:10.570Z,7.90
2023-03-07T00:19:37.572Z,7.80
2023-03-07T00:22:04.606Z,7.80
2023-03-07T00:24:31.811Z,7.70
2023-03-07T00:26:58.743Z,7.70
2023-03-07T00:29:25.692Z,7.60
2023-03-07T00:31:52.628Z,7.60
2023-03-07T00:34:19.646Z,7.60
2023-03-07T00:36:46.774Z,7.60
2023-03-07T00:39:14.638Z,7.60
2023-03-07T00:41:41.552Z,7.60
2023-03-07T00:44:08.509Z,7.70
2023-03-07T00:46:35.448Z,7.70
2023-03-07T00:49:02.594Z,7.80
2023-03-07T00:51:29.616Z,7.80
2023-03-07T00:53:56.893Z,7.90
2023-03-07T00:56:25.929Z,7.90
2023-03-07T00:58:53.200Z,7.90
2023-03-07T01:01:23.447Z,7.90
2023-03-07T01:03:53.771Z,7.80
2023-03-07T01:06:23.633Z,7.80
2023-03-07T01:08:51.323Z,7.70
2023-03-07T01:11:18.525Z,7.60
2023-03-07T01:13:45.920Z,7.60
2023-03-07T01:16:20.252Z,7.50
2023-03-07T01:18:53.727Z,7.40
2023-03-07T01:21:26.737Z,7.30
2023-03-07T01:23:54.456Z,7.20
2023-03-07T01:26:24.005Z,7.10
2023-03-07T01:28:52.564Z,7.10
2023-03-07T01:31:20.588Z,7.00
2023-03-07T01:33:48.850Z,7.00
2023-03-07T01:36:22.469Z,7.00
2023-03-07T01:38:50.303Z,7.00
2023-03-07T01:41:17.640Z,6.90
2023-03-07T01:43:47.398Z,6.90
2023-03-07T01:46:17.992Z,6.90
2023-03-07T01:48:54.060Z,6.80
2023-03-07T01:51:21.499Z,6.80
2023-03-07T01:53:53.554Z,6.80
2023-03-07T01:56:22.461Z,6.80
2023-03-07T01:58:50.550Z,6.70
2023-03-07T02:01:18.175Z,6.70
2023-03-07T02:03:59.870Z,6.70
2023-03-07T02:06:28.796Z,6.70
2023-03-07T02:08:56.927Z,6.70
2023-03-07T02:11:24.778Z,6.70
2023-03-07T02:13:52.985Z,6.80
2023-03-07T02:16:20.465Z,6.80
2023-03-07T02:18:50.131Z,6.80
2023-03-07T02:21:23.014Z,6.80
2023-03-07T02:24:08.524Z,6.80
2023-03-07T02:26:46.404Z,6.80
2023-03-07T02:29:13.614Z,6.80
2023-03-07T02:31:42.940Z,6.80
2023-03-07T02:34:26.399Z,6.80
2023-03-07T02:37:11.059Z,6.80
2023-03-07T02:39:42.737Z,6.70
2023-03-07T02:42:16.234Z,6.70
2023-03-07T02:44:56.047Z,6.70
2023-03-07T02:47:23.102Z,6.70
2023-03-07T02:49:50.002Z,6.70
2023-03-07T02:52:16.892Z,6.70
2023-03-07T02:54:43.743Z,6.70
2023-03-07T02:57:13.295Z,6.70
2023-03-07T02:59:40.135Z,6.80
2023-03-07T03:02:07.078Z,6.80
2023-03-07T03:04:33.864Z,6.80
2023-03-07T03:07:00.782Z,6.80
2023-03-07T03:09:27.616Z,6.80
2023-03-07T03:11:54.493Z,6.80
2023-03-07T03:14:24.836Z,6.80
2023-03-07T03:16:54.697Z,6.80
2023-03-07T03:19:21.759Z,6.70
2023-03-07T03:21:48.873Z,6.70
2023-03-07T03:24:16.691Z,6.80
2023-03-07T03:26:45.592Z,6.80
2023-03-07T03:29:13.013Z,6.80
2023-03-07T03:31:40.383Z,7.00
2023-03-07T03:34:07.751Z,7.00
2023-03-07T03:36:34.672Z,7.10
2023-03-07T03:39:10.849Z,7.20
2023-03-07T03:41:42.114Z,7.30
2023-03-07T03:44:10.092Z,7.40
2023-03-07T03:46:37.297Z,7.50
2023-03-07T03:49:04.759Z,7.50
2023-03-07T03:51:32.620Z,7.60
2023-03-07T03:53:59.915Z,7.70
2023-03-07T03:56:28.061Z,7.70
2023-03-07T03:58:55.857Z,7.70
2023-03-07T04:01:24.157Z,7.70
2023-03-07T04:03:52.076Z,7.70
2023-03-07T04:06:20.568Z,7.80
2023-03-07T04:08:47.907Z,7.70
2023-03-07T04:11:15.087Z,7.70
2023-03-07T04:13:42.401Z,7.70
2023-03-07T04:16:09.309Z,7.80
2023-03-07T04:18:36.583Z,7.80
2023-03-07T04:21:04.109Z,7.70
2023-03-07T04:23:30.907Z,7.80
2023-03-07T04:25:59.049Z,7.70
2023-03-07T04:28:27.970Z,7.60
2023-03-07T04:30:56.322Z,7.60
2023-03-07T04:33:27.341Z,7.50
2023-03-07T04:35:55.082Z,7.40
2023-03-07T04:38:22.117Z,7.30
2023-03-07T04:40:48.935Z,7.20
2023-03-07T04:43:16.170Z,7.10
2023-03-07T04:45:43.075Z,7.00
2023-03-07T04:48:09.908Z,7.00
2023-03-07T04:50:37.317Z,6.90
2023-03-07T04:53:04.450Z,6.90
2023-03-07T04:55:31.354Z,6.80
2023-03-07T04:57:58.335Z,6.80
2023-03-07T05:00:26.081Z,6.80
2023-03-07T05:02:56.723Z,6.70
2023-03-07T05:05:23.689Z,6.70
2023-03-07T05:07:51.383Z,6.70
2023-03-07T05:10:18.452Z,6.70
2023-03-07T05:12:45.346Z,6.70
2023-03-07T05:15:12.727Z,6.80
2023-03-07T05:17:39.931Z,6.80
2023-03-07T05:20:07.484Z,6.90
2023-03-07T05:22:35.757Z,6.80
2023-03-07T05:25:02.829Z,6.80
2023-03-07T05:27:29.838Z,6.80
2023-03-07T05:29:56.768Z,6.80
2023-03-07T05:32:23.652Z,6.70
2023-03-07T05:34:51.183Z,6.60
2023-03-07T05:37:20.346Z,6.50
2023-03-07T05:39:47.736Z,6.50
2023-03-07T05:42:15.632Z,6.50
2023-03-07T05:44:42.996Z,6.40
2023-03-07T05:47:10.770Z,6.30
2023-03-07T05:49:38.435Z,6.40
2023-03-07T05:52:05.496Z,6.40
2023-03-07T05:54:32.323Z,6.40
2023-03-07T05:56:59.237Z,6.50
2023-03-07T05:59:26.269Z,6.70
2023-03-07T06:01:53.837Z,6.70
2023-03-07T06:04:20.715Z,6.80
2023-03-07T06:06:47.544Z,6.90
2023-03-07T06:09:14.412Z,7.00
2023-03-07T06:11:41.230Z,7.10
2023-03-07T06:14:08.070Z,7.20
2023-03-07T06:16:34.890Z,7.30
2023-03-07T06:19:03.482Z,7.40
2023-03-07T06:21:30.590Z,7.50
2023-03-07T06:23:58.346Z,7.60
2023-03-07T06:26:25.234Z,7.80
2023-03-07T06:28:53.980Z,8.00
2023-03-07T06:31:22.769Z,8.20
2023-03-07T06:33:51.522Z,8.50
2023-03-07T06:36:20.453Z,8.90
2023-03-07T06:38:52.918Z,9.10
2023-03-07T06:41:20.073Z,9.20
2023-03-07T06:43:52.920Z,9.10
2023-03-07T06:46:25.726Z,9.10
2023-03-07T06:48:55.222Z,9.10
2023-03-07T06:51:23.467Z,9.10
2023-03-07T06:53:54.036Z,9.20
2023-03-07T06:56:21.032Z,9.10
2023-03-07T06:58:48.594Z,9.20
2023-03-07T07:01:21.157Z,9.20
2023-03-07T07:03:51.074Z,9.30
2023-03-07T07:06:18.757Z,9.40
2023-03-07T07:08:45.725Z,9.60
2023-03-07T07:11:12.950Z,10.00
2023-03-07T07:13:40.118Z,10.60
2023-03-07T07:16:09.575Z,11.50
2023-03-07T07:18:38.709Z,12.30
2023-03-07T07:21:07.314Z,12.70
2023-03-07T07:23:34.256Z,13.10
2023-03-07T07:26:01.768Z,13.50
2023-03-07T07:28:28.987Z,13.70
2023-03-07T07:30:56.131Z,14.00
2023-03-07T07:33:23.746Z,13.80
2023-03-07T07:35:51.492Z,13.40
2023-03-07T07:38:19.155Z,12.80
2023-03-07T07:40:46.151Z,12.30
2023-03-07T07:43:18.610Z,11.80
2023-03-07T07:45:54.095Z,11.40
2023-03-07T07:48:21.950Z,11.10
2023-03-07T07:50:49.464Z,11.00
2023-03-07T07:53:17.950Z,11.20
2023-03-07T07:55:46.177Z,12.00
2023-03-07T07:58:13.219Z,12.60
2023-03-07T08:00:40.379Z,12.60
2023-03-07T08:03:07.431Z,12.40
2023-03-07T08:05:34.425Z,12.10
2023-03-07T08:08:01.362Z,11.90
2023-03-07T08:10:28.347Z,11.70
2023-03-07T08:12:55.582Z,11.60
2023-03-07T08:15:22.659Z,11.70
2023-03-07T08:17:51.270Z,11.80
2023-03-07T08:20:22.251Z,12.10
2023-03-07T08:22:50.525Z,12.60
2023-03-07T08:25:22.528Z,13.20
2023-03-07T08:27:55.141Z,13.60
2023-03-07T08:30:24.415Z,14.10
2023-03-07T08:32:53.164Z,14.70
2023-03-07T08:35:20.365Z,15.20
2023-03-07T08:37:49.131Z,15.50
2023-03-07T08:40:16.980Z,15.60
2023-03-07T08:42:44.022Z,15.40
2023-03-07T08:45:11.626Z,14.90
2023-03-07T08:47:38.695Z,14.50
2023-03-07T08:50:06.236Z,14.10
2023-03-07T08:52:34.097Z,13.80
2023-03-07T08:55:01.004Z,13.60
2023-03-07T08:57:28.007Z,13.40
2023-03-07T08:59:55.017Z,13.20
2023-03-07T09:02:22.022Z,13.20
2023-03-07T09:04:49.836Z,13.10
2023-03-07T09:07:17.233Z,12.90
2023-03-07T09:09:44.797Z,12.70
2023-03-07T09:12:11.709Z,12.50
2023-03-07T09:14:38.732Z,12.40
2023-03-07T09:17:05.764Z,12.40
2023-03-07T09:19:32.953Z,12.40
2023-03-07T09:21:59.962Z,12.50
2023-03-07T09:24:29.773Z,12.80
2023-03-07T09:26:57.049Z,13.80
2023-03-07T09:29:24.861Z,14.90
2023-03-07T09:31:51.915Z,15.40
2023-03-07T09:34:18.866Z,15.80
2023-03-07T09:36:45.783Z,16.40
2023-03-07T09:39:16.664Z,17.80
2023-03-07T09:41:49.347Z,19.40
2023-03-07T09:44:16.141Z,20.30
2023-03-07T09:47:47.773Z,20.10
2023-03-07T09:50:23.288Z,20.50
2023-03-07T09:52:53.632Z,21.40
2023-03-07T09:55:21.989Z,22.10
2023-03-07T09:57:50.606Z,22.70
2023-03-07T10:00:20.887Z,23.20
2023-03-07T10:02:53.730Z,23.40
2023-03-07T10:05:35.583Z,22.70
2023-03-07T10:08:02.723Z,22.00
2023-03-07T10:10:44.413Z,21.60
2023-03-07T10:13:43.563Z,21.20
2023-03-07T10:16:16.430Z,21.40
2023-03-07T10:19:01.919Z,22.00
2023-03-07T10:21:44.513Z,22.80
2023-03-07T10:24:50.119Z,23.40
2023-03-07T10:27:17.316Z,23.70
2023-03-07T10:29:48.788Z,23.10
2023-03-07T10:32:35.046Z,22.60
2023-03-07T10:35:16.185Z,22.10
2023-03-07T10:37:45.765Z,22.50
2023-03-07T10:40:17.953Z,23.80
2023-03-07T10:42:44.892Z,24.90
2023-03-07T10:45:13.189Z,25.30
2023-03-07T10:47:40.031Z,25.20
2023-03-07T10:50:16.775Z,24.90
2023-03-07T10:52:48.948Z,24.80
2023-03-07T10:55:34.403Z,24.80
2023-03-07T10:58:20.075Z,25.10
2023-03-07T11:01:07.234Z,25.40
2023-03-07T11:03:51.939Z,25.90
2023-03-07T11:06:32.480Z,26.00
2023-03-07T11:09:09.880Z,27.00
2023-03-07T11:11:36.793Z,27.90
2023-03-07T11:14:13.362Z,28.20
2023-03-07T11:16:52.079Z,28.90
2023-03-07T11:19:34.091Z,29.30
2023-03-07T11:22:03.506Z,29.70
2023-03-07T11:24:37.700Z,30.40
2023-03-07T11:27:04.653Z,30.60
2023-03-07T11:29:33.781Z,30.40
2023-03-07T11:32:05.845Z,29.90
2023-03-07T11:34:51.738Z,29.70
2023-03-07T11:37:27.470Z,29.30
2023-03-07T11:40:13.000Z,28.70
2023-03-07T11:42:44.561Z,28.30
2023-03-07T11:45:11.384Z,27.10
2023-03-07T11:47:38.190Z,25.00
2023-03-07T11:50:13.842Z,23.40
2023-03-07T11:52:58.972Z,22.50
2023-03-07T11:55:36.017Z,22.90
2023-03-07T11:58:10.199Z,23.40
2023-03-07T12:00:52.365Z,22.80
2023-03-07T12:03:28.289Z,22.00
2023-03-07T12:06:13.755Z,21.40
2023-03-07T12:09:00.411Z,21.60
2023-03-07T12:11:39.879Z,22.00
2023-03-07T12:14:12.946Z,21.90
2023-03-07T12:16:54.809Z,21.40
2023-03-07T12:19:27.918Z,21.40
2023-03-07T12:21:57.792Z,21.00
2023-03-07T12:24:31.247Z,20.70
2023-03-07T12:27:00.513Z,20.50
2023-03-07T12:29:33.358Z,20.20
2023-03-07T12:32:04.005Z,21.00
2023-03-07T12:34:39.433Z,22.40
2023-03-07T12:37:08.161Z,23.30
2023-03-07T12:39:44.573Z,23.10
2023-03-07T12:42:19.430Z,22.50
2023-03-07T12:44:55.210Z,22.40
2023-03-07T12:47:42.806Z,22.10
2023-03-07T12:50:12.874Z,22.10
2023-03-07T12:52:58.486Z,22.80
2023-03-07T12:55:31.204Z,23.40
2023-03-07T12:58:04.057Z,23.10
2023-03-07T13:00:32.156Z,23.10
2023-03-07T13:03:04.323Z,23.40
2023-03-07T13:05:31.817Z,23.30
2023-03-07T13:07:58.954Z,23.20
2023-03-07T13:10:26.095Z,22.90
2023-03-07T13:12:53.232Z,22.30
2023-03-07T13:15:20.970Z,21.90
2023-03-07T13:17:47.826Z,21.40
2023-03-07T13:20:30.921Z,20.80
2023-03-07T13:22:59.501Z,20.30
2023-03-07T13:25:27.533Z,19.90
2023-03-07T13:27:55.660Z,19.50
2023-03-07T13:30:23.409Z,19.00
2023-03-07T13:32:54.433Z,18.70
2023-03-07T13:35:24.521Z,18.90
2023-03-07T13:37:52.720Z,19.50
2023-03-07T13:40:30.461Z,20.00
2023-03-07T13:42:57.491Z,20.20
2023-03-07T13:45:39.688Z,20.50
2023-03-07T13:48:32.624Z,21.20
2023-03-07T13:51:00.130Z,21.00
2023-03-07T13:53:36.056Z,20.60
2023-03-07T13:56:09.150Z,20.30
2023-03-07T13:58:56.410Z,20.30
2023-03-07T14:01:32.995Z,20.00
2023-03-07T14:04:03.136Z,19.40
2023-03-07T14:06:40.325Z,19.20
2023-03-07T14:09:12.040Z,19.30
2023-03-07T14:12:01.749Z,19.30
2023-03-07T14:14:39.775Z,19.10
2023-03-07T14:17:06.578Z,18.80
2023-03-07T14:19:52.790Z,18.50
2023-03-07T14:22:27.114Z,18.40
2023-03-07T14:24:57.634Z,18.80
2023-03-07T14:27:24.561Z,19.30
2023-03-07T14:29:52.543Z,20.20
2023-03-07T14:32:32.149Z,21.20
2023-03-07T14:34:59.144Z,21.80
2023-03-07T14:37:27.238Z,21.50
2023-03-07T14:40:13.559Z,21.00
2023-03-07T14:42:46.392Z,20.50
2023-03-07T14:45:28.277Z,19.80
2023-03-07T14:48:10.199Z,19.10
2023-03-07T14:50:44.002Z,18.30
2023-03-07T14:53:29.645Z,17.90
2023-03-07T14:55:59.537Z,17.50
2023-03-07T14:58:36.178Z,17.30
2023-03-07T15:01:11.213Z,17.10
2023-03-07T15:03:45.025Z,17.10
2023-03-07T15:06:13.978Z,17.10
2023-03-07T15:08:40.898Z,17.10
2023-03-07T15:11:22.561Z,17.10
2023-03-07T15:13:52.509Z,17.00
2023-03-07T15:16:25.953Z,17.00
2023-03-07T15:18:55.331Z,16.90
2023-03-07T15:21:24.842Z,16.80
2023-03-07T15:23:58.626Z,16.60
2023-03-07T15:26:26.998Z,16.50
2023-03-07T15:29:02.291Z,16.30
2023-03-07T15:31:31.829Z,16.20
2023-03-07T15:34:20.307Z,16.20
2023-03-07T15:36:47.227Z,16.30
2023-03-07T15:39:43.565Z,16.20
2023-03-07T15:42:23.689Z,16.20
2023-03-07T15:45:04.939Z,16.10
2023-03-07T15:47:32.647Z,15.90
2023-03-07T15:50:03.952Z,15.70
2023-03-07T15:52:34.163Z,15.50
2023-03-07T15:55:05.450Z,15.40
2023-03-07T15:57:39.237Z,15.30
2023-03-07T16:00:32.445Z,15.20
2023-03-07T16:03:33.022Z,15.00
2023-03-07T16:06:01.682Z,15.00
2023-03-07T16:08:28.832Z,14.90
2023-03-07T16:11:04.719Z,14.90
2023-03-07T16:13:42.341Z,14.80
2023-03-07T16:16:17.416Z,14.80
2023-03-07T16:18:45.586Z,14.70
2023-03-07T16:21:14.207Z,14.70
2023-03-07T16:23:41.808Z,14.60
2023-03-07T16:26:17.462Z,14.60
2023-03-07T16:28:44.618Z,14.50
2023-03-07T16:31:13.386Z,14.50
2023-03-07T16:33:40.676Z,14.40
2023-03-07T16:36:10.218Z,14.30
2023-03-07T16:38:37.403Z,14.30
2023-03-07T16:41:10.379Z,14.20
2023-03-07T16:43:38.288Z,14.20
2023-03-07T16:46:26.240Z,14.20
2023-03-07T16:48:53.252Z,14.10
2023-03-07T16:51:23.483Z,14.10
2023-03-07T16:53:51.230Z,14.00
2023-03-07T16:56:41.942Z,14.00
2023-03-07T16:59:20.946Z,14.00
2023-03-07T17:01:50.673Z,13.90
2023-03-07T17:04:18.168Z,13.90
2023-03-07T17:06:46.235Z,13.80
2023-03-07T17:09:15.742Z,13.70
2023-03-07T17:11:51.000Z,13.70
2023-03-07T17:14:19.495Z,13.60
2023-03-07T17:16:50.390Z,13.60
2023-03-07T17:19:35.162Z,13.50
2023-03-07T17:22:03.367Z,13.40
2023-03-07T17:24:31.212Z,13.40
2023-03-07T17:27:07.415Z,13.40
2023-03-07T17:30:00.646Z,13.30
2023-03-07T17:32:27.728Z,13.30
2023-03-07T17:34:54.812Z,13.30
2023-03-07T17:37:22.180Z,13.20
2023-03-07T17:39:49.124Z,13.20
2023-03-07T17:42:17.405Z,13.20
2023-03-07T17:44:44.358Z,13.10
2023-03-07T17:47:11.281Z,13.10
2023-03-07T17:49:39.401Z,13.00
2023-03-07T17:52:07.555Z,13.00
2023-03-07T17:54:35.194Z,13.00
2023-03-07T17:57:02.997Z,12.90
2023-03-07T17:59:32.316Z,12.90
2023-03-07T18:01:59.394Z,12.80
2023-03-07T18:04:28.567Z,12.80
2023-03-07T18:06:55.538Z,12.60
2023-03-07T18:09:23.340Z,12.60
2023-03-07T18:11:50.305Z,12.50
2023-03-07T18:14:17.622Z,12.50
2023-03-07T18:16:44.936Z,12.50
2023-03-07T18:19:25.386Z,12.50
2023-03-07T18:21:53.187Z,12.50
2023-03-07T18:24:21.416Z,12.50
2023-03-07T18:26:52.151Z,12.40
2023-03-07T18:29:19.751Z,12.30
2023-03-07T18:31:47.224Z,12.30
2023-03-07T18:34:15.217Z,12.30
2023-03-07T18:36:42.813Z,12.20
2023-03-07T18:39:13.810Z,12.20
2023-03-07T18:41:40.750Z,12.10
2023-03-07T18:44:08.112Z,12.10
2023-03-07T18:46:37.096Z,12.10
2023-03-07T18:49:04.190Z,12.10
2023-03-07T18:51:32.233Z,12.00
2023-03-07T18:54:01.235Z,12.00
2023-03-07T18:56:29.011Z,12.00
2023-03-07T18:58:59.465Z,12.00
2023-03-07T19:01:29.028Z,12.00
2023-03-07T19:03:57.608Z,12.00
2023-03-07T19:06:26.740Z,12.00
2023-03-07T19:08:53.856Z,12.00
2023-03-07T19:11:21.334Z,11.90
2023-03-07T19:13:49.579Z,11.90
2023-03-07T19:16:23.438Z,11.80
2023-03-07T19:18:51.521Z,11.80
2023-03-07T19:21:23.542Z,11.80
2023-03-07T19:23:51.651Z,11.80
2023-03-07T19:26:20.156Z,11.80
2023-03-07T19:28:49.572Z,11.80
2023-03-07T19:31:22.778Z,11.70
2023-03-07T19:33:50.647Z,11.70
2023-03-07T19:36:21.280Z,11.60
2023-03-07T19:38:49.961Z,11.50
2023-03-07T19:41:22.300Z,11.50
2023-03-07T19:43:52.092Z,11.40
2023-03-07T19:46:20.764Z,11.30
2023-03-07T19:48:48.258Z,11.30
2023-03-07T19:51:20.886Z,11.20
2023-03-07T19:53:47.886Z,11.20
2023-03-07T19:56:21.006Z,11.10
2023-03-07T19:58:48.089Z,11.00
2023-03-07T20:01:18.168Z,10.90
2023-03-07T20:03:45.869Z,10.80
2023-03-07T20:06:18.740Z,10.80
2023-03-07T20:08:50.457Z,10.70
2023-03-07T20:11:30.438Z,10.60
2023-03-07T20:13:59.436Z,10.50
2023-03-07T20:16:29.304Z,10.50
2023-03-07T20:19:02.757Z,10.40
2023-03-07T20:21:30.464Z,10.30
2023-03-07T20:24:01.170Z,10.20
2023-03-07T20:26:35.353Z,10.20
2023-03-07T20:29:05.436Z,10.10
2023-03-07T20:31:33.264Z,10.00
2023-03-07T20:34:01.091Z,9.90
2023-03-07T20:36:30.826Z,9.80
2023-03-07T20:38:59.921Z,9.70
2023-03-07T20:41:29.567Z,9.60
2023-03-07T20:44:04.982Z,9.60
2023-03-07T20:46:33.045Z,9.60
2023-03-07T20:49:01.801Z,9.50
2023-03-07T20:51:32.005Z,9.40
2023-03-07T20:54:04.531Z,9.30
2023-03-07T20:56:33.220Z,9.30
2023-03-07T20:59:00.934Z,9.20
2023-03-07T21:01:29.812Z,9.20
2023-03-07T21:03:59.633Z,9.10
2023-03-07T21:06:26.735Z,9.10
2023-03-07T21:08:53.746Z,9.10
2023-03-07T21:11:21.505Z,9.00
2023-03-07T21:13:49.580Z,9.00
2023-03-07T21:16:19.375Z,9.00
2023-03-07T21:18:46.594Z,9.00
2023-03-07T21:21:18.894Z,8.90
2023-03-07T21:23:46.548Z,8.90
2023-03-07T21:26:14.382Z,8.90
2023-03-07T21:28:41.418Z,8.90
2023-03-07T21:31:19.296Z,8.90
2023-03-07T21:33:48.844Z,8.90
2023-03-07T21:36:18.725Z,8.90
2023-03-07T21:38:46.646Z,8.90
2023-03-07T21:41:14.614Z,8.90
2023-03-07T21:43:42.033Z,8.90
2023-03-07T21:46:11.863Z,8.90
2023-03-07T21:48:39.548Z,9.00
2023-03-07T21:51:06.846Z,9.00
2023-03-07T21:53:34.468Z,9.00
2023-03-07T21:56:04.767Z,9.10
2023-03-07T21:58:32.577Z,9.20
2023-03-07T22:00:59.779Z,9.20
2023-03-07T22:03:28.955Z,9.30
2023-03-07T22:05:57.421Z,9.30
2023-03-07T22:08:24.712Z,9.40
2023-03-07T22:11:03.417Z,9.40
2023-03-07T22:13:32.646Z,9.50
2023-03-07T22:16:02.196Z,9.50
2023-03-07T22:18:29.602Z,9.50
2023-03-07T22:20:56.765Z,9.50
2023-03-07T22:23:26.609Z,9.50
2023-03-07T22:25:53.786Z,9.60
2023-03-07T22:28:21.075Z,9.60
2023-03-07T22:30:49.449Z,9.60
2023-03-07T22:33:16.932Z,9.60
2023-03-07T22:35:43.961Z,9.70
2023-03-07T22:38:10.962Z,9.70
2023-03-07T22:40:39.361Z,9.70
2023-03-07T22:43:06.424Z,9.80
2023-03-07T22:45:33.341Z,9.80
2023-03-07T22:48:00.240Z,9.80
2023-03-07T22:50:27.346Z,9.80
2023-03-07T22:52:55.212Z,9.80
2023-03-07T22:55:22.368Z,9.80
2023-03-07T22:57:49.368Z,9.80
2023-03-07T23:00:16.643Z,9.80
2023-03-07T23:02:43.784Z,9.80
2023-03-07T23:05:11.264Z,9.80
2023-03-07T23:07:39.952Z,9.80
2023-03-07T23:10:07.028Z,9.80
2023-03-07T23:12:34.101Z,9.80
2023-03-07T23:15:01.094Z,9.90
2023-03-07T23:17:28.016Z,9.90
2023-03-07T23:19:55.037Z,9.90
2023-03-07T23:22:21.943Z,9.90
2023-03-07T23:24:48.904Z,10.00
2023-03-07T23:27:15.804Z,9.90
2023-03-07T23:29:42.736Z,9.90
2023-03-07T23:32:09.704Z,10.00
2023-03-07T23:34:36.732Z,10.00
2023-03-07T23:37:03.738Z,10.00
2023-03-07T23:39:30.708Z,10.00
2023-03-07T23:41:57.603Z,10.00
2023-03-07T23:44:24.585Z,10.00
2023-03-07T23:46:51.513Z,9.90
2023-03-07T23:49:18.460Z,9.90
2023-03-07T23:51:45.410Z,9.80
2023-03-07T23:54:12.418Z,9.70
2023-03-07T23:56:39.417Z,9.50
2023-03-07T23:59:06.406Z,9.40
